Britannia — VY5348 — position and weather

sailwx.info

Track history (hours):
 
Tides and Currents Weather Stations Pressure Air Temp Water Temp Dewpoint Dewpoint Depression Visibility Wind Speed Wind Dir Waves Ship Positions

Britannia

Last reported at 2014-Jul-29 18:33 UTC. Time now 2014-Jul-29 18:51 UTC.
Position N 49°18' W 123°08'.

Type: Ship (hazmat cat B). MMSI: 316021351.

Date/timePositionNaut miles runAvg speedWind from/ knotsBaromVisibWave heightAir tempDewpointWater temp
2014-Jul-29 18:33N 49°18' W 123°08'0 0.0
2014-Jul-29 17:33N 49°18' W 123°08'0 0.0
2014-Jul-29 16:33N 49°18' W 123°08'0 0.0
2014-Jul-29 15:33N 49°18' W 123°08'0 0.0
2014-Jul-29 14:33N 49°18' W 123°08'0 0.0
2014-Jul-29 13:33N 49°18' W 123°08'0 0.0
2014-Jul-29 12:33N 49°18' W 123°08'0 0.0
2014-Jul-29 11:33N 49°18' W 123°08'0 0.0
2014-Jul-29 10:33N 49°18' W 123°08'0 0.0
2014-Jul-29 09:34N 49°18' W 123°08'0 0.0
2014-Jul-29 08:33N 49°18' W 123°08'0 0.0
2014-Jul-29 07:33N 49°18' W 123°08'0 0.0
2014-Jul-29 06:33N 49°18' W 123°08'0 0.0
2014-Jul-29 05:33N 49°18' W 123°08'0 0.0
2014-Jul-29 04:33N 49°18' W 123°08'0 0.0
2014-Jul-29 03:33N 49°18' W 123°08'0 0.0
2014-Jul-29 02:33N 49°18' W 123°08'0 0.0
2014-Jul-29 01:33N 49°18' W 123°08'0 0.0
2014-Jul-29 00:33N 49°18' W 123°08'0 0.1
2014-Jul-28 23:33N 49°18' W 123°08'1 0.6
2014-Jul-28 22:33N 49°18' W 123°07'0 0.2
2014-Jul-28 21:33N 49°18' W 123°07'9 8.5
2014-Jul-28 20:33N 49°22' W 123°18'7 7.2
2014-Jul-28 19:33N 49°24' W 123°29'0 0.0
2014-Jul-28 18:33N 49°24' W 123°29'7 7.1
2014-Jul-28 17:33N 49°25' W 123°18'9 9.5
2014-Jul-28 16:33N 49°18' W 123°07'1 0.9
2014-Jul-28 15:33N 49°18' W 123°08'0 0.0
2014-Jul-28 14:33N 49°18' W 123°08'0 0.0
2014-Jul-28 13:33N 49°18' W 123°08'0 0.0
2014-Jul-28 12:33N 49°18' W 123°08'0 0.0
2014-Jul-28 11:33N 49°18' W 123°08'0 0.0
2014-Jul-28 10:33N 49°18' W 123°08'0 0.0
2014-Jul-28 09:33N 49°18' W 123°08'0 0.0
2014-Jul-28 08:33N 49°18' W 123°08'0 0.0
2014-Jul-28 07:33N 49°18' W 123°08'0 0.0
2014-Jul-28 06:33N 49°18' W 123°08'0 0.0
2014-Jul-28 05:33N 49°18' W 123°08'0 0.0
2014-Jul-28 04:33N 49°18' W 123°08'0 0.0
2014-Jul-28 03:33N 49°18' W 123°08'0 0.0
2014-Jul-28 02:33N 49°18' W 123°08'0 0.0
2014-Jul-28 01:33N 49°18' W 123°08'0 0.0
2014-Jul-28 00:33N 49°18' W 123°08'0 0.0
2014-Jul-27 23:33N 49°18' W 123°08'0 0.0
2014-Jul-27 22:33N 49°18' W 123°08'3 2.7
2014-Jul-27 21:33N 49°18' W 123°04'5 5.0
2014-Jul-27 20:33N 49°18' W 122°56'7 6.7
2014-Jul-27 19:33N 49°18' W 123°07'1 0.9
2014-Jul-27 18:33N 49°18' W 123°08'0 0.0
2014-Jul-27 17:33N 49°18' W 123°08'0 0.0
2014-Jul-27 16:33N 49°18' W 123°08'0 0.0
2014-Jul-27 15:33N 49°18' W 123°08'0 0.0
2014-Jul-27 14:33N 49°18' W 123°08'0 0.0
2014-Jul-27 13:33N 49°18' W 123°08'0 0.0
2014-Jul-27 12:33N 49°18' W 123°08'0 0.0
2014-Jul-27 11:33N 49°18' W 123°08'0 0.0
2014-Jul-27 10:33N 49°18' W 123°08'0 0.0
2014-Jul-27 09:33N 49°18' W 123°08'0 0.0
2014-Jul-27 08:33N 49°18' W 123°08'0 0.0
2014-Jul-27 07:33N 49°18' W 123°08'0 0.2
2014-Jul-27 06:33N 49°18' W 123°08'2 1.8
2014-Jul-27 05:33N 49°17' W 123°10'0 0.4
2014-Jul-27 04:33N 49°17' W 123°11'2 2.4
2014-Jul-27 03:33N 49°19' W 123°09'2 1.8
2014-Jul-27 02:33N 49°18' W 123°08'0 0.0
2014-Jul-27 01:33N 49°18' W 123°08'0 0.0
2014-Jul-27 00:33N 49°18' W 123°08'0 0.0
2014-Jul-26 23:33N 49°18' W 123°08'0 0.0
2014-Jul-26 22:34N 49°18' W 123°08'0 0.0
2014-Jul-26 21:33N 49°18' W 123°08'0 0.0
2014-Jul-26 20:33N 49°18' W 123°08'1 0.9
2014-Jul-26 19:33N 49°19' W 123°08'9 9.4
2014-Jul-26 18:33N 49°25' W 123°18'6 5.6
2014-Jul-26 17:33N 49°31' W 123°18'0 0.2
2014-Jul-26 16:33N 49°31' W 123°19'10 9.8
2014-Jul-26 15:33N 49°21' W 123°17'7 6.8
2014-Jul-26 14:33N 49°18' W 123°08'0 0.0
2014-Jul-26 13:33N 49°18' W 123°08'0 0.0
2014-Jul-26 12:33N 49°18' W 123°08'0 0.0
2014-Jul-26 11:33N 49°18' W 123°08'0 0.0
2014-Jul-26 10:33N 49°18' W 123°08'0 0.0
2014-Jul-26 09:33N 49°18' W 123°08'0 0.0
2014-Jul-26 08:33N 49°18' W 123°08'0 0.0
2014-Jul-26 07:33N 49°18' W 123°08'0 0.0
2014-Jul-26 06:33N 49°18' W 123°08'0 0.0
2014-Jul-26 05:33N 49°18' W 123°08'0 0.0
2014-Jul-26 04:33N 49°18' W 123°08'0 0.0
2014-Jul-26 03:33N 49°18' W 123°08'0 0.0
2014-Jul-26 02:33N 49°18' W 123°08'0 0.0
2014-Jul-26 01:33N 49°18' W 123°08'0 0.0
2014-Jul-26 00:33N 49°18' W 123°08'0 0.0
2014-Jul-25 23:33N 49°18' W 123°08'0 0.0
2014-Jul-25 22:33N 49°18' W 123°08'2 1.5
2014-Jul-25 21:33N 49°18' W 123°06'7 7.4
2014-Jul-25 20:33N 49°20' W 122°55'3 2.5
2014-Jul-25 19:33N 49°22' W 122°53'8 7.7
2014-Jul-25 18:33N 49°18' W 123°02'4 4.1
2014-Jul-25 17:33N 49°18' W 123°08'0 0.0
2014-Jul-25 16:33N 49°18' W 123°08'0 0.0
2014-Jul-25 15:33N 49°18' W 123°08'0 0.0
2014-Jul-25 14:33N 49°18' W 123°08'0 0.0
2014-Jul-25 13:33N 49°18' W 123°08'0 0.0
2014-Jul-25 12:33N 49°18' W 123°08'0 0.0
2014-Jul-25 11:33N 49°18' W 123°08'0 0.0
2014-Jul-25 10:33N 49°18' W 123°08'0 0.0
2014-Jul-25 09:33N 49°18' W 123°08'0 0.0
2014-Jul-25 08:33N 49°18' W 123°08'0 0.0
2014-Jul-25 07:33N 49°18' W 123°08'0 0.0
2014-Jul-25 06:33N 49°18' W 123°08'0 0.0
2014-Jul-25 05:33N 49°18' W 123°08'0 0.0
2014-Jul-25 04:34N 49°18' W 123°08'0 0.0
2014-Jul-25 03:33N 49°18' W 123°08'0 0.0
2014-Jul-25 02:33N 49°18' W 123°08'0 0.0
2014-Jul-25 01:33N 49°18' W 123°08'0 0.0
2014-Jul-25 00:33N 49°18' W 123°08'0 0.0
2014-Jul-24 23:34N 49°18' W 123°08'5 5.4
2014-Jul-24 22:33N 49°20' W 123°16'9 8.7
2014-Jul-24 21:33N 49°25' W 123°26'2 2.1
2014-Jul-24 20:33N 49°24' W 123°29'0 0.1
2014-Jul-24 19:33N 49°24' W 123°29'7 7.5
2014-Jul-24 18:33N 49°22' W 123°18'8 8.1
2014-Jul-24 17:33N 49°18' W 123°08'0 0.1
2014-Jul-24 16:33N 49°18' W 123°08'0 0.0
2014-Jul-24 15:33N 49°18' W 123°08'0 0.0
2014-Jul-24 14:33N 49°18' W 123°08'0 0.0
2014-Jul-24 13:33N 49°18' W 123°08'0 0.0
2014-Jul-24 12:33N 49°18' W 123°08'0 0.0
2014-Jul-24 11:33N 49°18' W 123°08'0 0.0
2014-Jul-24 10:33N 49°18' W 123°08'0 0.0
2014-Jul-24 09:33N 49°18' W 123°08'0 0.0
2014-Jul-24 08:33N 49°18' W 123°08'0 0.0
2014-Jul-24 07:33N 49°18' W 123°08'0 0.0
2014-Jul-24 06:33N 49°18' W 123°08'0 0.0
2014-Jul-24 05:33N 49°18' W 123°08'0 0.0
2014-Jul-24 04:33N 49°18' W 123°08'0 0.0
2014-Jul-24 03:33N 49°18' W 123°08'0 0.0
2014-Jul-24 02:33N 49°18' W 123°08'0 0.0
2014-Jul-24 01:33N 49°18' W 123°08'0 0.0
2014-Jul-24 00:33N 49°18' W 123°08'0 0.0
2014-Jul-23 23:33N 49°18' W 123°08'0 0.0
2014-Jul-23 22:33N 49°18' W 123°08'0 0.0
2014-Jul-23 21:33N 49°18' W 123°08'0 0.0
2014-Jul-23 20:33N 49°18' W 123°08'0 0.0
2014-Jul-23 19:34N 49°18' W 123°08'0 0.0
2014-Jul-23 18:33N 49°18' W 123°08'0 0.0
2014-Jul-23 17:33N 49°18' W 123°08'0 0.0
2014-Jul-23 16:33N 49°18' W 123°08'0 0.0
2014-Jul-23 15:33N 49°18' W 123°08'0 0.0
2014-Jul-23 14:33N 49°18' W 123°08'0 0.0
2014-Jul-23 13:33N 49°18' W 123°08'0 0.0
2014-Jul-23 12:33N 49°18' W 123°08'0 0.0
2014-Jul-23 11:33N 49°18' W 123°08'0 0.0
2014-Jul-23 10:33N 49°18' W 123°08'0 0.0
2014-Jul-23 09:33N 49°18' W 123°08'0 0.0
2014-Jul-23 08:33N 49°18' W 123°08'0 0.0
2014-Jul-23 07:33N 49°18' W 123°08'0 0.0
2014-Jul-23 06:33N 49°18' W 123°08'0 0.0
2014-Jul-23 05:33N 49°18' W 123°08'0 0.0
2014-Jul-23 04:33N 49°18' W 123°08'0 0.0
2014-Jul-23 03:33N 49°18' W 123°08'0 0.0
2014-Jul-23 02:33N 49°18' W 123°08'0 0.0
2014-Jul-23 01:33N 49°18' W 123°08'0 0.0
2014-Jul-23 00:33N 49°18' W 123°08'0 0.0
2014-Jul-22 23:33N 49°18' W 123°08'0 0.0
2014-Jul-22 22:33N 49°18' W 123°08'0 0.0
2014-Jul-22 21:33N 49°18' W 123°08'0 0.0
2014-Jul-22 20:33N 49°18' W 123°08'0 0.0
2014-Jul-22 19:33N 49°18' W 123°08'0 0.0
2014-Jul-22 18:33N 49°18' W 123°08'0 0.0
2014-Jul-22 17:33N 49°18' W 123°08'0 0.0
2014-Jul-22 16:33N 49°18' W 123°08'0 0.0
2014-Jul-22 15:33N 49°18' W 123°08'0 0.0
2014-Jul-22 14:33N 49°18' W 123°08'0 0.0
2014-Jul-22 13:33N 49°18' W 123°08'0 0.0
2014-Jul-22 12:33N 49°18' W 123°08'0 0.0
2014-Jul-22 11:33N 49°18' W 123°08'0 0.0
2014-Jul-22 10:33N 49°18' W 123°08'0 0.0
2014-Jul-22 09:33N 49°18' W 123°08'0 0.0
2014-Jul-22 08:33N 49°18' W 123°08'0 0.0
2014-Jul-22 07:33N 49°18' W 123°08'0 0.0
2014-Jul-22 06:33N 49°18' W 123°08'0 0.0
2014-Jul-22 05:33N 49°18' W 123°08'0 0.0
2014-Jul-22 04:33N 49°18' W 123°08'0 0.0
2014-Jul-22 03:33N 49°18' W 123°08'0 0.0
2014-Jul-22 02:33N 49°18' W 123°08'0 0.0
2014-Jul-22 01:33N 49°18' W 123°08'0 0.0
2014-Jul-22 00:33N 49°18' W 123°08'0 0.0
2014-Jul-21 23:33N 49°18' W 123°08'0 0.0
2014-Jul-21 22:33N 49°18' W 123°08'2 1.9
2014-Jul-21 21:33N 49°19' W 123°10'9 9.4
2014-Jul-21 20:33N 49°25' W 123°21'311.5
2014-Jul-21 20:18N 49°25' W 123°25'3 3.7
2014-Jul-21 19:33N 49°24' W 123°29'0 0.5
2014-Jul-21 18:33N 49°24' W 123°29'8 8.0
2014-Jul-21 17:33N 49°21' W 123°18'7 7.2
2014-Jul-21 16:33N 49°18' W 123°08'0 0.0
2014-Jul-21 15:33N 49°18' W 123°08'0 0.0
2014-Jul-21 14:33N 49°18' W 123°08'0 0.0
2014-Jul-21 13:33N 49°18' W 123°08'0 0.0
2014-Jul-21 12:33N 49°18' W 123°08'0 0.0
2014-Jul-21 11:33N 49°18' W 123°08'0 0.0
2014-Jul-21 10:33N 49°18' W 123°08'0 0.0
2014-Jul-21 09:33N 49°18' W 123°08'0 0.0
2014-Jul-21 08:33N 49°18' W 123°08'0 0.0
2014-Jul-21 07:33N 49°18' W 123°08'0 0.0
2014-Jul-21 06:33N 49°18' W 123°08'0 0.0
2014-Jul-21 05:33N 49°18' W 123°08'0 0.0
2014-Jul-21 04:33N 49°18' W 123°08'0 0.0
2014-Jul-21 03:33N 49°18' W 123°08'0 0.0
2014-Jul-21 02:33N 49°18' W 123°08'2 2.2
2014-Jul-21 01:33N 49°18' W 123°05'8 7.9
2014-Jul-21 00:33N 49°21' W 122°54'0 0.4
2014-Jul-20 23:33N 49°21' W 122°53'9 8.9
2014-Jul-20 22:33N 49°18' W 123°06'1 1.3
2014-Jul-20 21:33N 49°18' W 123°08'0 0.0
2014-Jul-20 20:33N 49°18' W 123°08'0 0.0
2014-Jul-20 19:33N 49°18' W 123°08'0 0.0
2014-Jul-20 18:33N 49°18' W 123°08'0 0.0
2014-Jul-20 17:34N 49°18' W 123°08'0 0.0
2014-Jul-20 16:33N 49°18' W 123°08'0 0.0
2014-Jul-20 15:33N 49°18' W 123°08'0 0.0
2014-Jul-20 14:34N 49°18' W 123°08'0 0.0
2014-Jul-20 13:33N 49°18' W 123°08'0 0.0
2014-Jul-20 12:33N 49°18' W 123°08'0 0.0
2014-Jul-20 11:33N 49°18' W 123°08'0 0.0
2014-Jul-20 10:33N 49°18' W 123°08'0 0.0
2014-Jul-20 09:33N 49°18' W 123°08'0 0.0
2014-Jul-20 08:33N 49°18' W 123°08'0 0.0
2014-Jul-20 07:33N 49°18' W 123°08'2 1.8
2014-Jul-20 06:33N 49°19' W 123°09'1 1.4
2014-Jul-20 05:33N 49°19' W 123°12'3 2.9
2014-Jul-20 04:33N 49°18' W 123°08'0 0.0
2014-Jul-20 03:33N 49°18' W 123°08'0 0.0
2014-Jul-20 02:33N 49°18' W 123°08'0 0.0
2014-Jul-20 01:33N 49°18' W 123°08'0 0.0
2014-Jul-20 00:33N 49°18' W 123°08'0 0.0
2014-Jul-19 23:33N 49°18' W 123°08'0 0.0
2014-Jul-19 22:33N 49°18' W 123°08'0 0.0
2014-Jul-19 21:33N 49°18' W 123°08'0 0.0
2014-Jul-19 20:33N 49°18' W 123°08'0 0.4
2014-Jul-19 19:33N 49°18' W 123°07'8 8.5
2014-Jul-19 18:33N 49°22' W 123°18'  
Track history (hours):
 
Tides and Currents Weather Stations Pressure Air Temp Water Temp Dewpoint Dewpoint Depression Visibility Wind Speed Wind Dir Waves Ship Positions

Britannia

Last reported at 2014-Jul-29 18:33 UTC. Time now 2014-Jul-29 18:51 UTC.
Position N 49°18' W 123°08'.

Type: Ship (hazmat cat B). MMSI: 316021351.

Date/timePositionNaut miles runAvg speedWind from/ knotsBaromVisibWave heightAir tempDewpointWater temp
2014-Jul-29 18:33N 49°18' W 123°08'0 0.0
2014-Jul-29 17:33N 49°18' W 123°08'0 0.0
2014-Jul-29 16:33N 49°18' W 123°08'0 0.0
2014-Jul-29 15:33N 49°18' W 123°08'0 0.0
2014-Jul-29 14:33N 49°18' W 123°08'0 0.0
2014-Jul-29 13:33N 49°18' W 123°08'0 0.0
2014-Jul-29 12:33N 49°18' W 123°08'0 0.0
2014-Jul-29 11:33N 49°18' W 123°08'0 0.0
2014-Jul-29 10:33N 49°18' W 123°08'0 0.0
2014-Jul-29 09:34N 49°18' W 123°08'0 0.0
2014-Jul-29 08:33N 49°18' W 123°08'0 0.0
2014-Jul-29 07:33N 49°18' W 123°08'0 0.0
2014-Jul-29 06:33N 49°18' W 123°08'0 0.0
2014-Jul-29 05:33N 49°18' W 123°08'0 0.0
2014-Jul-29 04:33N 49°18' W 123°08'0 0.0
2014-Jul-29 03:33N 49°18' W 123°08'0 0.0
2014-Jul-29 02:33N 49°18' W 123°08'0 0.0
2014-Jul-29 01:33N 49°18' W 123°08'0 0.0
2014-Jul-29 00:33N 49°18' W 123°08'0 0.1
2014-Jul-28 23:33N 49°18' W 123°08'1 0.6
2014-Jul-28 22:33N 49°18' W 123°07'0 0.2
2014-Jul-28 21:33N 49°18' W 123°07'9 8.5
2014-Jul-28 20:33N 49°22' W 123°18'7 7.2
2014-Jul-28 19:33N 49°24' W 123°29'0 0.0
2014-Jul-28 18:33N 49°24' W 123°29'7 7.1
2014-Jul-28 17:33N 49°25' W 123°18'9 9.5
2014-Jul-28 16:33N 49°18' W 123°07'1 0.9
2014-Jul-28 15:33N 49°18' W 123°08'0 0.0
2014-Jul-28 14:33N 49°18' W 123°08'0 0.0
2014-Jul-28 13:33N 49°18' W 123°08'0 0.0
2014-Jul-28 12:33N 49°18' W 123°08'0 0.0
2014-Jul-28 11:33N 49°18' W 123°08'0 0.0
2014-Jul-28 10:33N 49°18' W 123°08'0 0.0
2014-Jul-28 09:33N 49°18' W 123°08'0 0.0
2014-Jul-28 08:33N 49°18' W 123°08'0 0.0
2014-Jul-28 07:33N 49°18' W 123°08'0 0.0
2014-Jul-28 06:33N 49°18' W 123°08'0 0.0
2014-Jul-28 05:33N 49°18' W 123°08'0 0.0
2014-Jul-28 04:33N 49°18' W 123°08'0 0.0
2014-Jul-28 03:33N 49°18' W 123°08'0 0.0
2014-Jul-28 02:33N 49°18' W 123°08'0 0.0
2014-Jul-28 01:33N 49°18' W 123°08'0 0.0
2014-Jul-28 00:33N 49°18' W 123°08'0 0.0
2014-Jul-27 23:33N 49°18' W 123°08'0 0.0
2014-Jul-27 22:33N 49°18' W 123°08'3 2.7
2014-Jul-27 21:33N 49°18' W 123°04'5 5.0
2014-Jul-27 20:33N 49°18' W 122°56'7 6.7
2014-Jul-27 19:33N 49°18' W 123°07'1 0.9
2014-Jul-27 18:33N 49°18' W 123°08'0 0.0
2014-Jul-27 17:33N 49°18' W 123°08'0 0.0
2014-Jul-27 16:33N 49°18' W 123°08'0 0.0
2014-Jul-27 15:33N 49°18' W 123°08'0 0.0
2014-Jul-27 14:33N 49°18' W 123°08'0 0.0
2014-Jul-27 13:33N 49°18' W 123°08'0 0.0
2014-Jul-27 12:33N 49°18' W 123°08'0 0.0
2014-Jul-27 11:33N 49°18' W 123°08'0 0.0
2014-Jul-27 10:33N 49°18' W 123°08'0 0.0
2014-Jul-27 09:33N 49°18' W 123°08'0 0.0
2014-Jul-27 08:33N 49°18' W 123°08'0 0.0
2014-Jul-27 07:33N 49°18' W 123°08'0 0.2
2014-Jul-27 06:33N 49°18' W 123°08'2 1.8
2014-Jul-27 05:33N 49°17' W 123°10'0 0.4
2014-Jul-27 04:33N 49°17' W 123°11'2 2.4
2014-Jul-27 03:33N 49°19' W 123°09'2 1.8
2014-Jul-27 02:33N 49°18' W 123°08'0 0.0
2014-Jul-27 01:33N 49°18' W 123°08'0 0.0
2014-Jul-27 00:33N 49°18' W 123°08'0 0.0
2014-Jul-26 23:33N 49°18' W 123°08'0 0.0
2014-Jul-26 22:34N 49°18' W 123°08'0 0.0
2014-Jul-26 21:33N 49°18' W 123°08'0 0.0
2014-Jul-26 20:33N 49°18' W 123°08'1 0.9
2014-Jul-26 19:33N 49°19' W 123°08'9 9.4
2014-Jul-26 18:33N 49°25' W 123°18'6 5.6
2014-Jul-26 17:33N 49°31' W 123°18'0 0.2
2014-Jul-26 16:33N 49°31' W 123°19'10 9.8
2014-Jul-26 15:33N 49°21' W 123°17'7 6.8
2014-Jul-26 14:33N 49°18' W 123°08'0 0.0
2014-Jul-26 13:33N 49°18' W 123°08'0 0.0
2014-Jul-26 12:33N 49°18' W 123°08'0 0.0
2014-Jul-26 11:33N 49°18' W 123°08'0 0.0
2014-Jul-26 10:33N 49°18' W 123°08'0 0.0
2014-Jul-26 09:33N 49°18' W 123°08'0 0.0
2014-Jul-26 08:33N 49°18' W 123°08'0 0.0
2014-Jul-26 07:33N 49°18' W 123°08'0 0.0
2014-Jul-26 06:33N 49°18' W 123°08'0 0.0
2014-Jul-26 05:33N 49°18' W 123°08'0 0.0
2014-Jul-26 04:33N 49°18' W 123°08'0 0.0
2014-Jul-26 03:33N 49°18' W 123°08'0 0.0
2014-Jul-26 02:33N 49°18' W 123°08'0 0.0
2014-Jul-26 01:33N 49°18' W 123°08'0 0.0
2014-Jul-26 00:33N 49°18' W 123°08'0 0.0
2014-Jul-25 23:33N 49°18' W 123°08'0 0.0
2014-Jul-25 22:33N 49°18' W 123°08'2 1.5
2014-Jul-25 21:33N 49°18' W 123°06'7 7.4
2014-Jul-25 20:33N 49°20' W 122°55'3 2.5
2014-Jul-25 19:33N 49°22' W 122°53'8 7.7
2014-Jul-25 18:33N 49°18' W 123°02'4 4.1
2014-Jul-25 17:33N 49°18' W 123°08'0 0.0
2014-Jul-25 16:33N 49°18' W 123°08'0 0.0
2014-Jul-25 15:33N 49°18' W 123°08'0 0.0
2014-Jul-25 14:33N 49°18' W 123°08'0 0.0
2014-Jul-25 13:33N 49°18' W 123°08'0 0.0
2014-Jul-25 12:33N 49°18' W 123°08'0 0.0
2014-Jul-25 11:33N 49°18' W 123°08'0 0.0
2014-Jul-25 10:33N 49°18' W 123°08'0 0.0
2014-Jul-25 09:33N 49°18' W 123°08'0 0.0
2014-Jul-25 08:33N 49°18' W 123°08'0 0.0
2014-Jul-25 07:33N 49°18' W 123°08'0 0.0
2014-Jul-25 06:33N 49°18' W 123°08'0 0.0
2014-Jul-25 05:33N 49°18' W 123°08'0 0.0
2014-Jul-25 04:34N 49°18' W 123°08'0 0.0
2014-Jul-25 03:33N 49°18' W 123°08'0 0.0
2014-Jul-25 02:33N 49°18' W 123°08'0 0.0
2014-Jul-25 01:33N 49°18' W 123°08'0 0.0
2014-Jul-25 00:33N 49°18' W 123°08'0 0.0
2014-Jul-24 23:34N 49°18' W 123°08'5 5.4
2014-Jul-24 22:33N 49°20' W 123°16'9 8.7
2014-Jul-24 21:33N 49°25' W 123°26'2 2.1
2014-Jul-24 20:33N 49°24' W 123°29'0 0.1
2014-Jul-24 19:33N 49°24' W 123°29'7 7.5
2014-Jul-24 18:33N 49°22' W 123°18'8 8.1
2014-Jul-24 17:33N 49°18' W 123°08'0 0.1
2014-Jul-24 16:33N 49°18' W 123°08'0 0.0
2014-Jul-24 15:33N 49°18' W 123°08'0 0.0
2014-Jul-24 14:33N 49°18' W 123°08'0 0.0
2014-Jul-24 13:33N 49°18' W 123°08'0 0.0
2014-Jul-24 12:33N 49°18' W 123°08'0 0.0
2014-Jul-24 11:33N 49°18' W 123°08'0 0.0
2014-Jul-24 10:33N 49°18' W 123°08'0 0.0
2014-Jul-24 09:33N 49°18' W 123°08'0 0.0
2014-Jul-24 08:33N 49°18' W 123°08'0 0.0
2014-Jul-24 07:33N 49°18' W 123°08'0 0.0
2014-Jul-24 06:33N 49°18' W 123°08'0 0.0
2014-Jul-24 05:33N 49°18' W 123°08'0 0.0
2014-Jul-24 04:33N 49°18' W 123°08'0 0.0
2014-Jul-24 03:33N 49°18' W 123°08'0 0.0
2014-Jul-24 02:33N 49°18' W 123°08'0 0.0
2014-Jul-24 01:33N 49°18' W 123°08'0 0.0
2014-Jul-24 00:33N 49°18' W 123°08'0 0.0
2014-Jul-23 23:33N 49°18' W 123°08'0 0.0
2014-Jul-23 22:33N 49°18' W 123°08'0 0.0
2014-Jul-23 21:33N 49°18' W 123°08'0 0.0
2014-Jul-23 20:33N 49°18' W 123°08'0 0.0
2014-Jul-23 19:34N 49°18' W 123°08'0 0.0
2014-Jul-23 18:33N 49°18' W 123°08'0 0.0
2014-Jul-23 17:33N 49°18' W 123°08'0 0.0
2014-Jul-23 16:33N 49°18' W 123°08'0 0.0
2014-Jul-23 15:33N 49°18' W 123°08'0 0.0
2014-Jul-23 14:33N 49°18' W 123°08'0 0.0
2014-Jul-23 13:33N 49°18' W 123°08'0 0.0
2014-Jul-23 12:33N 49°18' W 123°08'0 0.0
2014-Jul-23 11:33N 49°18' W 123°08'0 0.0
2014-Jul-23 10:33N 49°18' W 123°08'0 0.0
2014-Jul-23 09:33N 49°18' W 123°08'0 0.0
2014-Jul-23 08:33N 49°18' W 123°08'0 0.0
2014-Jul-23 07:33N 49°18' W 123°08'0 0.0
2014-Jul-23 06:33N 49°18' W 123°08'0 0.0
2014-Jul-23 05:33N 49°18' W 123°08'0 0.0
2014-Jul-23 04:33N 49°18' W 123°08'0 0.0
2014-Jul-23 03:33N 49°18' W 123°08'0 0.0
2014-Jul-23 02:33N 49°18' W 123°08'0 0.0
2014-Jul-23 01:33N 49°18' W 123°08'0 0.0
2014-Jul-23 00:33N 49°18' W 123°08'0 0.0
2014-Jul-22 23:33N 49°18' W 123°08'0 0.0
2014-Jul-22 22:33N 49°18' W 123°08'0 0.0
2014-Jul-22 21:33N 49°18' W 123°08'0 0.0
2014-Jul-22 20:33N 49°18' W 123°08'0 0.0
2014-Jul-22 19:33N 49°18' W 123°08'0 0.0
2014-Jul-22 18:33N 49°18' W 123°08'0 0.0
2014-Jul-22 17:33N 49°18' W 123°08'0 0.0
2014-Jul-22 16:33N 49°18' W 123°08'0 0.0
2014-Jul-22 15:33N 49°18' W 123°08'0 0.0
2014-Jul-22 14:33N 49°18' W 123°08'0 0.0
2014-Jul-22 13:33N 49°18' W 123°08'0 0.0
2014-Jul-22 12:33N 49°18' W 123°08'0 0.0
2014-Jul-22 11:33N 49°18' W 123°08'0 0.0
2014-Jul-22 10:33N 49°18' W 123°08'0 0.0
2014-Jul-22 09:33N 49°18' W 123°08'0 0.0
2014-Jul-22 08:33N 49°18' W 123°08'0 0.0
2014-Jul-22 07:33N 49°18' W 123°08'0 0.0
2014-Jul-22 06:33N 49°18' W 123°08'0 0.0
2014-Jul-22 05:33N 49°18' W 123°08'0 0.0
2014-Jul-22 04:33N 49°18' W 123°08'0 0.0
2014-Jul-22 03:33N 49°18' W 123°08'0 0.0
2014-Jul-22 02:33N 49°18' W 123°08'0 0.0
2014-Jul-22 01:33N 49°18' W 123°08'0 0.0
2014-Jul-22 00:33N 49°18' W 123°08'0 0.0
2014-Jul-21 23:33N 49°18' W 123°08'0 0.0
2014-Jul-21 22:33N 49°18' W 123°08'2 1.9
2014-Jul-21 21:33N 49°19' W 123°10'9 9.4
2014-Jul-21 20:33N 49°25' W 123°21'311.5
2014-Jul-21 20:18N 49°25' W 123°25'3 3.7
2014-Jul-21 19:33N 49°24' W 123°29'0 0.5
2014-Jul-21 18:33N 49°24' W 123°29'8 8.0
2014-Jul-21 17:33N 49°21' W 123°18'7 7.2
2014-Jul-21 16:33N 49°18' W 123°08'0 0.0
2014-Jul-21 15:33N 49°18' W 123°08'0 0.0
2014-Jul-21 14:33N 49°18' W 123°08'0 0.0
2014-Jul-21 13:33N 49°18' W 123°08'0 0.0
2014-Jul-21 12:33N 49°18' W 123°08'0 0.0
2014-Jul-21 11:33N 49°18' W 123°08'0 0.0
2014-Jul-21 10:33N 49°18' W 123°08'0 0.0
2014-Jul-21 09:33N 49°18' W 123°08'0 0.0
2014-Jul-21 08:33N 49°18' W 123°08'0 0.0
2014-Jul-21 07:33N 49°18' W 123°08'0 0.0
2014-Jul-21 06:33N 49°18' W 123°08'0 0.0
2014-Jul-21 05:33N 49°18' W 123°08'0 0.0
2014-Jul-21 04:33N 49°18' W 123°08'0 0.0
2014-Jul-21 03:33N 49°18' W 123°08'0 0.0
2014-Jul-21 02:33N 49°18' W 123°08'2 2.2
2014-Jul-21 01:33N 49°18' W 123°05'8 7.9
2014-Jul-21 00:33N 49°21' W 122°54'0 0.4
2014-Jul-20 23:33N 49°21' W 122°53'9 8.9
2014-Jul-20 22:33N 49°18' W 123°06'1 1.3
2014-Jul-20 21:33N 49°18' W 123°08'0 0.0
2014-Jul-20 20:33N 49°18' W 123°08'0 0.0
2014-Jul-20 19:33N 49°18' W 123°08'0 0.0
2014-Jul-20 18:33N 49°18' W 123°08'0 0.0
2014-Jul-20 17:34N 49°18' W 123°08'0 0.0
2014-Jul-20 16:33N 49°18' W 123°08'0 0.0
2014-Jul-20 15:33N 49°18' W 123°08'0 0.0
2014-Jul-20 14:34N 49°18' W 123°08'0 0.0
2014-Jul-20 13:33N 49°18' W 123°08'0 0.0
2014-Jul-20 12:33N 49°18' W 123°08'0 0.0
2014-Jul-20 11:33N 49°18' W 123°08'0 0.0
2014-Jul-20 10:33N 49°18' W 123°08'0 0.0
2014-Jul-20 09:33N 49°18' W 123°08'0 0.0
2014-Jul-20 08:33N 49°18' W 123°08'0 0.0
2014-Jul-20 07:33N 49°18' W 123°08'2 1.8
2014-Jul-20 06:33N 49°19' W 123°09'1 1.4
2014-Jul-20 05:33N 49°19' W 123°12'3 2.9
2014-Jul-20 04:33N 49°18' W 123°08'0 0.0
2014-Jul-20 03:33N 49°18' W 123°08'0 0.0
2014-Jul-20 02:33N 49°18' W 123°08'0 0.0
2014-Jul-20 01:33N 49°18' W 123°08'0 0.0
2014-Jul-20 00:33N 49°18' W 123°08'0 0.0
2014-Jul-19 23:33N 49°18' W 123°08'0 0.0
2014-Jul-19 22:33N 49°18' W 123°08'0 0.0
2014-Jul-19 21:33N 49°18' W 123°08'0 0.0
2014-Jul-19 20:33N 49°18' W 123°08'0 0.4
2014-Jul-19 19:33N 49°18' W 123°07'8 8.5
2014-Jul-19 18:33N 49°22' W 123°18'  

Dump ship's entire track history